Scout — WCZ2046 — position and weather

sailwx.info

Track history (hours):
 
Tides and Currents Weather Stations Pressure Air Temp Water Temp Dewpoint Dewpoint Depression Visibility Wind Speed Wind Dir Waves Ship Positions

Scout

Owner: CROWLEY MARINE SERVICES INC, SEATTLE, WA. More information available from US FCC via Universal Licensing System and Coast Guard Vessel Documentation Center.

Last reported at 2015-Jan-29 03:33 UTC. Time now 2015-Jan-29 04:23 UTC.
Position N 32°42' W 117°09'.

; draft 5.6 m.

Type: Tug. MMSI: 366764730.

Date/timePositionNaut miles runAvg speedWind from/ knotsBaromVisibWave heightAir tempDewpointWater temp
2015-Jan-29 03:33N 32°42' W 117°09'0 0.2
2015-Jan-29 02:32N 32°42' W 117°09'0 0.1
2015-Jan-29 01:34N 32°42' W 117°09'2 2.0
2015-Jan-29 00:33N 32°40' W 117°08'2 0.9
2015-Jan-28 22:28N 32°42' W 117°09'0 0.0
2015-Jan-28 21:26N 32°42' W 117°09'0 0.0
2015-Jan-28 20:26N 32°42' W 117°09'0 0.0
2015-Jan-28 19:32N 32°42' W 117°09'3 3.5
2015-Jan-28 18:33N 32°39' W 117°07'3 3.5
2015-Jan-28 17:34N 32°42' W 117°09'0 0.1
2015-Jan-28 16:33N 32°42' W 117°09'0 0.0
2015-Jan-28 15:29N 32°42' W 117°09'3 3.3
2015-Jan-28 14:34N 32°39' W 117°07'3 0.7
2015-Jan-28 10:27N 32°42' W 117°09'0 0.0
2015-Jan-28 09:28N 32°42' W 117°09'0 0.0
2015-Jan-28 08:22N 32°42' W 117°09'0 0.0
2015-Jan-28 07:21N 32°42' W 117°09'0 0.0
2015-Jan-28 06:30N 32°42' W 117°09'0 0.0
2015-Jan-28 03:22N 32°42' W 117°09'0 0.6
2015-Jan-28 02:34N 32°42' W 117°10'0 0.2
2015-Jan-28 00:14N 32°42' W 117°09'3 4.5
2015-Jan-27 23:33N 32°39' W 117°07'3 1.4
2015-Jan-27 21:26N 32°42' W 117°09'0 0.0
2015-Jan-27 20:26N 32°42' W 117°09'0 0.0
2015-Jan-27 19:07N 32°42' W 117°09'0 0.0
2015-Jan-27 18:28N 32°42' W 117°09'0 0.0
2015-Jan-27 17:27N 32°42' W 117°09'0 0.0
2015-Jan-27 16:32N 32°42' W 117°09'0 0.0
2015-Jan-27 15:13N 32°42' W 117°09'3 4.5
2015-Jan-27 14:33N 32°39' W 117°07'3 2.2
2015-Jan-27 13:11N 32°42' W 117°09'0 0.0
2015-Jan-27 12:23N 32°42' W 117°09'0 0.0
2015-Jan-27 08:18N 32°42' W 117°09'0 0.0
2015-Jan-27 07:26N 32°42' W 117°09'0 0.0
2015-Jan-27 06:27N 32°42' W 117°09'0 0.0
2015-Jan-27 05:31N 32°42' W 117°09'0 0.0
2015-Jan-27 04:33N 32°42' W 117°09'0 0.0
2015-Jan-27 03:04N 32°42' W 117°09'0 0.0
2015-Jan-27 02:33N 32°42' W 117°09'0 0.0
2015-Jan-27 01:06N 32°42' W 117°09'0 0.0
2015-Jan-26 22:23N 32°42' W 117°09'0 0.0
2015-Jan-26 19:09N 32°42' W 117°09'0 0.0
2015-Jan-26 17:33N 32°42' W 117°09'0 0.0
2015-Jan-26 16:21N 32°42' W 117°09'0 0.0
2015-Jan-26 15:33N 32°42' W 117°09'0 0.0
2015-Jan-25 15:33N 32°42' W 117°09'0 0.0
2015-Jan-25 14:33N 32°42' W 117°09'0 0.0
2015-Jan-25 03:08N 32°42' W 117°09'0 0.0
2015-Jan-25 02:30N 32°42' W 117°09'0 0.0
2015-Jan-25 01:32N 32°42' W 117°09'0 0.0
2015-Jan-25 00:23N 32°42' W 117°09'0 0.0
2015-Jan-24 23:28N 32°42' W 117°09'3 2.9
2015-Jan-24 22:33N 32°40' W 117°08'3 2.1
2015-Jan-24 21:20N 32°42' W 117°09'2 2.9
2015-Jan-24 20:33N 32°40' W 117°08'2 0.5
2015-Jan-24 16:18N 32°42' W 117°09'0 0.0
2015-Jan-24 15:33N 32°42' W 117°09'0 0.0
2015-Jan-24 14:30N 32°42' W 117°09'2 0.8
2015-Jan-24 11:33N 32°40' W 117°08'1 0.8
2015-Jan-24 10:33N 32°40' W 117°08'2 1.7
2015-Jan-24 09:33N 32°42' W 117°09'0 0.0
2015-Jan-24 08:32N 32°42' W 117°09'0 0.0
2015-Jan-24 07:32N 32°42' W 117°09'0 0.1
2015-Jan-24 04:33N 32°41' W 117°09'2 2.0
2015-Jan-24 03:33N 32°40' W 117°08'2 2.2
2015-Jan-24 02:33N 32°42' W 117°09'0 0.0
2015-Jan-24 01:33N 32°42' W 117°09'0 0.0
2015-Jan-24 00:32N 32°42' W 117°09'0 0.0
2015-Jan-23 20:12N 32°42' W 117°09'0 0.0
2015-Jan-23 15:25N 32°42' W 117°09'0 0.0
2015-Jan-23 13:16N 32°42' W 117°09'0 0.0
2015-Jan-23 09:30N 32°42' W 117°09'0 0.0
2015-Jan-23 07:08N 32°42' W 117°09'0 0.0
2015-Jan-23 06:29N 32°42' W 117°09'0 0.0
2015-Jan-23 02:32N 32°42' W 117°09'0 0.0
2015-Jan-23 01:33N 32°42' W 117°09'0 0.0
2015-Jan-23 00:33N 32°42' W 117°09'0 0.0
2015-Jan-22 23:33N 32°42' W 117°09'0 0.0
2015-Jan-22 22:27N 32°42' W 117°09'0 0.0
2015-Jan-22 21:20N 32°42' W 117°09'0 0.0
2015-Jan-22 18:08N 32°42' W 117°09'0 0.0
2015-Jan-22 17:33N 32°42' W 117°09'0 0.0
2015-Jan-22 16:33N 32°42' W 117°09'0 0.0
2015-Jan-22 15:33N 32°42' W 117°09'0 0.0
2015-Jan-22 14:33N 32°42' W 117°09'0 0.0
2015-Jan-22 13:33N 32°42' W 117°09'0 0.0
2015-Jan-22 11:26N 32°42' W 117°09'0 0.0
2015-Jan-22 10:33N 32°42' W 117°09'0 0.0
2015-Jan-22 09:33N 32°42' W 117°09'0 0.0
2015-Jan-22 08:33N 32°42' W 117°09'0 0.0
2015-Jan-22 07:33N 32°42' W 117°09'0 0.0
2015-Jan-22 06:32N 32°42' W 117°09'0 0.0
2015-Jan-22 05:27N 32°42' W 117°09'0 0.0
2015-Jan-22 04:33N 32°42' W 117°09'0 0.0
2015-Jan-22 03:33N 32°42' W 117°09'2 1.6
2015-Jan-22 02:30N 32°40' W 117°08'1 0.7
2015-Jan-22 01:33N 32°40' W 117°08'2 2.3
2015-Jan-22 00:33N 32°42' W 117°09'0 0.0
2015-Jan-21 23:27N 32°42' W 117°09'0 0.0
2015-Jan-21 22:09N 32°42' W 117°09'0 0.0
2015-Jan-21 21:30N 32°42' W 117°09'2 0.5
2015-Jan-21 18:32N 32°41' W 117°08'0 0.2
2015-Jan-21 17:33N 32°41' W 117°08'1 1.3
2015-Jan-21 16:32N 32°42' W 117°09'0 0.0
2015-Jan-21 15:32N 32°42' W 117°09'0 0.0
2015-Jan-21 14:28N 32°42' W 117°09'0 0.0
2015-Jan-21 13:33N 32°42' W 117°09'4 4.0
2015-Jan-21 12:33N 32°41' W 117°14'4 3.6
2015-Jan-21 11:33N 32°42' W 117°10'1 0.2
2015-Jan-21 08:22N 32°42' W 117°09'0 0.0
2015-Jan-21 07:32N 32°42' W 117°09'0 0.0
2015-Jan-21 06:33N 32°42' W 117°09'0 0.0
2015-Jan-21 05:33N 32°42' W 117°09'0 0.0
2015-Jan-21 04:33N 32°42' W 117°09'3 3.4
2015-Jan-21 03:33N 32°39' W 117°07'3 2.8
2015-Jan-21 02:20N 32°42' W 117°09'0 0.0
2015-Jan-21 01:32N 32°42' W 117°09'0 0.0
2015-Jan-21 00:32N 32°42' W 117°09'0 0.0
2015-Jan-20 23:33N 32°42' W 117°09'0 0.0
2015-Jan-20 22:33N 32°42' W 117°09'0 0.0
2015-Jan-20 21:31N 32°42' W 117°09'0 0.0
2015-Jan-20 20:30N 32°42' W 117°09'0 0.0
2015-Jan-20 19:24N 32°42' W 117°09'0 0.0
2015-Jan-20 18:28N 32°42' W 117°09'0 0.0
2015-Jan-20 17:33N 32°42' W 117°09'0 0.0
2015-Jan-20 16:33N 32°42' W 117°09'0 0.3
2015-Jan-20 15:33N 32°41' W 117°09'1 1.4
2015-Jan-20 14:33N 32°41' W 117°08'2 1.6
2015-Jan-20 13:33N 32°42' W 117°09'0 0.0
2015-Jan-20 12:33N 32°42' W 117°09'0 0.0
2015-Jan-20 11:33N 32°42' W 117°09'0 0.0
2015-Jan-20 10:31N 32°42' W 117°09'0 0.0
2015-Jan-20 09:30N 32°42' W 117°09'0 0.0
2015-Jan-20 08:33N 32°42' W 117°09'0 0.0
2015-Jan-20 07:33N 32°42' W 117°09'0 0.0
2015-Jan-20 06:33N 32°42' W 117°09'0 0.0
2015-Jan-20 05:30N 32°42' W 117°09'0 0.0
2015-Jan-20 04:29N 32°42' W 117°09'0 0.0
2015-Jan-20 03:29N 32°42' W 117°09'0 0.0
2015-Jan-20 02:12N 32°42' W 117°09'0 0.0
2015-Jan-20 01:15N 32°42' W 117°09'0 0.0
2015-Jan-20 00:33N 32°42' W 117°09'0 0.0
2015-Jan-19 23:33N 32°42' W 117°09'0 0.0
2015-Jan-19 22:33N 32°42' W 117°09'0 0.0
2015-Jan-19 21:06N 32°42' W 117°09'0 0.0
2015-Jan-19 20:05N 32°42' W 117°09'0 0.0
2015-Jan-19 19:30N 32°42' W 117°09'0 0.0
2015-Jan-19 17:33N 32°42' W 117°09'0 0.0
2015-Jan-19 16:30N 32°42' W 117°09'0 0.0
2015-Jan-19 15:33N 32°42' W 117°09'0 0.0
2015-Jan-19 14:33N 32°42' W 117°09'0 0.0
2015-Jan-19 13:33N 32°42' W 117°09'0 0.0
2015-Jan-19 12:31N 32°42' W 117°09'0 0.0
2015-Jan-19 10:32N 32°42' W 117°09'0 0.0
2015-Jan-19 09:33N 32°42' W 117°09'0 0.0
2015-Jan-19 08:14N 32°42' W 117°09'0 0.0
2015-Jan-19 07:33N 32°42' W 117°09'0 0.0
2015-Jan-19 06:32N 32°42' W 117°09'0 0.0
2015-Jan-19 05:32N 32°42' W 117°09'0 0.0
2015-Jan-19 04:33N 32°42' W 117°09'0 0.0
2015-Jan-19 03:33N 32°42' W 117°09'  
Track history (hours):
 
Tides and Currents Weather Stations Pressure Air Temp Water Temp Dewpoint Dewpoint Depression Visibility Wind Speed Wind Dir Waves Ship Positions

Scout

Owner: CROWLEY MARINE SERVICES INC, SEATTLE, WA. More information available from US FCC via Universal Licensing System and Coast Guard Vessel Documentation Center.

Last reported at 2015-Jan-29 03:33 UTC. Time now 2015-Jan-29 04:23 UTC.
Position N 32°42' W 117°09'.

; draft 5.6 m.

Type: Tug. MMSI: 366764730.

Date/timePositionNaut miles runAvg speedWind from/ knotsBaromVisibWave heightAir tempDewpointWater temp
2015-Jan-29 03:33N 32°42' W 117°09'0 0.2
2015-Jan-29 02:32N 32°42' W 117°09'0 0.1
2015-Jan-29 01:34N 32°42' W 117°09'2 2.0
2015-Jan-29 00:33N 32°40' W 117°08'2 0.9
2015-Jan-28 22:28N 32°42' W 117°09'0 0.0
2015-Jan-28 21:26N 32°42' W 117°09'0 0.0
2015-Jan-28 20:26N 32°42' W 117°09'0 0.0
2015-Jan-28 19:32N 32°42' W 117°09'3 3.5
2015-Jan-28 18:33N 32°39' W 117°07'3 3.5
2015-Jan-28 17:34N 32°42' W 117°09'0 0.1
2015-Jan-28 16:33N 32°42' W 117°09'0 0.0
2015-Jan-28 15:29N 32°42' W 117°09'3 3.3
2015-Jan-28 14:34N 32°39' W 117°07'3 0.7
2015-Jan-28 10:27N 32°42' W 117°09'0 0.0
2015-Jan-28 09:28N 32°42' W 117°09'0 0.0
2015-Jan-28 08:22N 32°42' W 117°09'0 0.0
2015-Jan-28 07:21N 32°42' W 117°09'0 0.0
2015-Jan-28 06:30N 32°42' W 117°09'0 0.0
2015-Jan-28 03:22N 32°42' W 117°09'0 0.6
2015-Jan-28 02:34N 32°42' W 117°10'0 0.2
2015-Jan-28 00:14N 32°42' W 117°09'3 4.5
2015-Jan-27 23:33N 32°39' W 117°07'3 1.4
2015-Jan-27 21:26N 32°42' W 117°09'0 0.0
2015-Jan-27 20:26N 32°42' W 117°09'0 0.0
2015-Jan-27 19:07N 32°42' W 117°09'0 0.0
2015-Jan-27 18:28N 32°42' W 117°09'0 0.0
2015-Jan-27 17:27N 32°42' W 117°09'0 0.0
2015-Jan-27 16:32N 32°42' W 117°09'0 0.0
2015-Jan-27 15:13N 32°42' W 117°09'3 4.5
2015-Jan-27 14:33N 32°39' W 117°07'3 2.2
2015-Jan-27 13:11N 32°42' W 117°09'0 0.0
2015-Jan-27 12:23N 32°42' W 117°09'0 0.0
2015-Jan-27 08:18N 32°42' W 117°09'0 0.0
2015-Jan-27 07:26N 32°42' W 117°09'0 0.0
2015-Jan-27 06:27N 32°42' W 117°09'0 0.0
2015-Jan-27 05:31N 32°42' W 117°09'0 0.0
2015-Jan-27 04:33N 32°42' W 117°09'0 0.0
2015-Jan-27 03:04N 32°42' W 117°09'0 0.0
2015-Jan-27 02:33N 32°42' W 117°09'0 0.0
2015-Jan-27 01:06N 32°42' W 117°09'0 0.0
2015-Jan-26 22:23N 32°42' W 117°09'0 0.0
2015-Jan-26 19:09N 32°42' W 117°09'0 0.0
2015-Jan-26 17:33N 32°42' W 117°09'0 0.0
2015-Jan-26 16:21N 32°42' W 117°09'0 0.0
2015-Jan-26 15:33N 32°42' W 117°09'0 0.0
2015-Jan-25 15:33N 32°42' W 117°09'0 0.0
2015-Jan-25 14:33N 32°42' W 117°09'0 0.0
2015-Jan-25 03:08N 32°42' W 117°09'0 0.0
2015-Jan-25 02:30N 32°42' W 117°09'0 0.0
2015-Jan-25 01:32N 32°42' W 117°09'0 0.0
2015-Jan-25 00:23N 32°42' W 117°09'0 0.0
2015-Jan-24 23:28N 32°42' W 117°09'3 2.9
2015-Jan-24 22:33N 32°40' W 117°08'3 2.1
2015-Jan-24 21:20N 32°42' W 117°09'2 2.9
2015-Jan-24 20:33N 32°40' W 117°08'2 0.5
2015-Jan-24 16:18N 32°42' W 117°09'0 0.0
2015-Jan-24 15:33N 32°42' W 117°09'0 0.0
2015-Jan-24 14:30N 32°42' W 117°09'2 0.8
2015-Jan-24 11:33N 32°40' W 117°08'1 0.8
2015-Jan-24 10:33N 32°40' W 117°08'2 1.7
2015-Jan-24 09:33N 32°42' W 117°09'0 0.0
2015-Jan-24 08:32N 32°42' W 117°09'0 0.0
2015-Jan-24 07:32N 32°42' W 117°09'0 0.1
2015-Jan-24 04:33N 32°41' W 117°09'2 2.0
2015-Jan-24 03:33N 32°40' W 117°08'2 2.2
2015-Jan-24 02:33N 32°42' W 117°09'0 0.0
2015-Jan-24 01:33N 32°42' W 117°09'0 0.0
2015-Jan-24 00:32N 32°42' W 117°09'0 0.0
2015-Jan-23 20:12N 32°42' W 117°09'0 0.0
2015-Jan-23 15:25N 32°42' W 117°09'0 0.0
2015-Jan-23 13:16N 32°42' W 117°09'0 0.0
2015-Jan-23 09:30N 32°42' W 117°09'0 0.0
2015-Jan-23 07:08N 32°42' W 117°09'0 0.0
2015-Jan-23 06:29N 32°42' W 117°09'0 0.0
2015-Jan-23 02:32N 32°42' W 117°09'0 0.0
2015-Jan-23 01:33N 32°42' W 117°09'0 0.0
2015-Jan-23 00:33N 32°42' W 117°09'0 0.0
2015-Jan-22 23:33N 32°42' W 117°09'0 0.0
2015-Jan-22 22:27N 32°42' W 117°09'0 0.0
2015-Jan-22 21:20N 32°42' W 117°09'0 0.0
2015-Jan-22 18:08N 32°42' W 117°09'0 0.0
2015-Jan-22 17:33N 32°42' W 117°09'0 0.0
2015-Jan-22 16:33N 32°42' W 117°09'0 0.0
2015-Jan-22 15:33N 32°42' W 117°09'0 0.0
2015-Jan-22 14:33N 32°42' W 117°09'0 0.0
2015-Jan-22 13:33N 32°42' W 117°09'0 0.0
2015-Jan-22 11:26N 32°42' W 117°09'0 0.0
2015-Jan-22 10:33N 32°42' W 117°09'0 0.0
2015-Jan-22 09:33N 32°42' W 117°09'0 0.0
2015-Jan-22 08:33N 32°42' W 117°09'0 0.0
2015-Jan-22 07:33N 32°42' W 117°09'0 0.0
2015-Jan-22 06:32N 32°42' W 117°09'0 0.0
2015-Jan-22 05:27N 32°42' W 117°09'0 0.0
2015-Jan-22 04:33N 32°42' W 117°09'0 0.0
2015-Jan-22 03:33N 32°42' W 117°09'2 1.6
2015-Jan-22 02:30N 32°40' W 117°08'1 0.7
2015-Jan-22 01:33N 32°40' W 117°08'2 2.3
2015-Jan-22 00:33N 32°42' W 117°09'0 0.0
2015-Jan-21 23:27N 32°42' W 117°09'0 0.0
2015-Jan-21 22:09N 32°42' W 117°09'0 0.0
2015-Jan-21 21:30N 32°42' W 117°09'2 0.5
2015-Jan-21 18:32N 32°41' W 117°08'0 0.2
2015-Jan-21 17:33N 32°41' W 117°08'1 1.3
2015-Jan-21 16:32N 32°42' W 117°09'0 0.0
2015-Jan-21 15:32N 32°42' W 117°09'0 0.0
2015-Jan-21 14:28N 32°42' W 117°09'0 0.0
2015-Jan-21 13:33N 32°42' W 117°09'4 4.0
2015-Jan-21 12:33N 32°41' W 117°14'4 3.6
2015-Jan-21 11:33N 32°42' W 117°10'1 0.2
2015-Jan-21 08:22N 32°42' W 117°09'0 0.0
2015-Jan-21 07:32N 32°42' W 117°09'0 0.0
2015-Jan-21 06:33N 32°42' W 117°09'0 0.0
2015-Jan-21 05:33N 32°42' W 117°09'0 0.0
2015-Jan-21 04:33N 32°42' W 117°09'3 3.4
2015-Jan-21 03:33N 32°39' W 117°07'3 2.8
2015-Jan-21 02:20N 32°42' W 117°09'0 0.0
2015-Jan-21 01:32N 32°42' W 117°09'0 0.0
2015-Jan-21 00:32N 32°42' W 117°09'0 0.0
2015-Jan-20 23:33N 32°42' W 117°09'0 0.0
2015-Jan-20 22:33N 32°42' W 117°09'0 0.0
2015-Jan-20 21:31N 32°42' W 117°09'0 0.0
2015-Jan-20 20:30N 32°42' W 117°09'0 0.0
2015-Jan-20 19:24N 32°42' W 117°09'0 0.0
2015-Jan-20 18:28N 32°42' W 117°09'0 0.0
2015-Jan-20 17:33N 32°42' W 117°09'0 0.0
2015-Jan-20 16:33N 32°42' W 117°09'0 0.3
2015-Jan-20 15:33N 32°41' W 117°09'1 1.4
2015-Jan-20 14:33N 32°41' W 117°08'2 1.6
2015-Jan-20 13:33N 32°42' W 117°09'0 0.0
2015-Jan-20 12:33N 32°42' W 117°09'0 0.0
2015-Jan-20 11:33N 32°42' W 117°09'0 0.0
2015-Jan-20 10:31N 32°42' W 117°09'0 0.0
2015-Jan-20 09:30N 32°42' W 117°09'0 0.0
2015-Jan-20 08:33N 32°42' W 117°09'0 0.0
2015-Jan-20 07:33N 32°42' W 117°09'0 0.0
2015-Jan-20 06:33N 32°42' W 117°09'0 0.0
2015-Jan-20 05:30N 32°42' W 117°09'0 0.0
2015-Jan-20 04:29N 32°42' W 117°09'0 0.0
2015-Jan-20 03:29N 32°42' W 117°09'0 0.0
2015-Jan-20 02:12N 32°42' W 117°09'0 0.0
2015-Jan-20 01:15N 32°42' W 117°09'0 0.0
2015-Jan-20 00:33N 32°42' W 117°09'0 0.0
2015-Jan-19 23:33N 32°42' W 117°09'0 0.0
2015-Jan-19 22:33N 32°42' W 117°09'0 0.0
2015-Jan-19 21:06N 32°42' W 117°09'0 0.0
2015-Jan-19 20:05N 32°42' W 117°09'0 0.0
2015-Jan-19 19:30N 32°42' W 117°09'0 0.0
2015-Jan-19 17:33N 32°42' W 117°09'0 0.0
2015-Jan-19 16:30N 32°42' W 117°09'0 0.0
2015-Jan-19 15:33N 32°42' W 117°09'0 0.0
2015-Jan-19 14:33N 32°42' W 117°09'0 0.0
2015-Jan-19 13:33N 32°42' W 117°09'0 0.0
2015-Jan-19 12:31N 32°42' W 117°09'0 0.0
2015-Jan-19 10:32N 32°42' W 117°09'0 0.0
2015-Jan-19 09:33N 32°42' W 117°09'0 0.0
2015-Jan-19 08:14N 32°42' W 117°09'0 0.0
2015-Jan-19 07:33N 32°42' W 117°09'0 0.0
2015-Jan-19 06:32N 32°42' W 117°09'0 0.0
2015-Jan-19 05:32N 32°42' W 117°09'0 0.0
2015-Jan-19 04:33N 32°42' W 117°09'0 0.0
2015-Jan-19 03:33N 32°42' W 117°09'  

Dump ship's entire track history